Orbital elements of SAKURA-2A
| Launched | 3 February 1983 |
| Flight ended | – |
| Launch site | Tanegashima Space Center, Japan |
| Owner | Japan |
| NORAD ID | 13782 |
| Alternative names |
CS-2A |
| Date fetched |
Epoch osculation |
Inc. [°] |
Ecc. | RA asc node [hr] |
Arg Peri. [°] |
Mean anom [°] |
Mean motion [rev/day] |
Abs. mag |
| Date fetched |
Epoch osculation |
Inc. [°] |
Ecc. | RA asc node [hr] |
Arg Peri. [°] |
Mean anom [°] |
Mean motion [rev/day] |
Abs. mag |
| 2026 May 08 17:57 | 2026 May 05 11:43:13 | 10.3574 | 0.00114 | 21.3834 | 335.2157 | 213.1112 | 0.99405 | – |
| 2026 May 07 17:58 | 2026 May 05 11:43:13 | 10.3574 | 0.00114 | 21.3834 | 335.2157 | 213.1112 | 0.99405 | – |
| 2026 May 06 17:57 | 2026 May 05 11:43:13 | 10.3574 | 0.00114 | 21.3834 | 335.2157 | 213.1112 | 0.99405 | – |
| 2026 May 05 17:57 | 2026 May 05 11:43:13 | 10.3574 | 0.00114 | 21.3834 | 335.2157 | 213.1112 | 0.99405 | – |
| 2026 May 04 17:57 | 2026 Apr 30 10:34:16 | 10.3659 | 0.00115 | 21.3854 | 335.1958 | 213.1112 | 0.99405 | – |
| 2026 May 03 17:57 | 2026 Apr 30 10:34:16 | 10.3659 | 0.00115 | 21.3854 | 335.1958 | 213.1112 | 0.99405 | – |
| 2026 May 02 17:57 | 2026 Apr 30 10:34:16 | 10.3659 | 0.00115 | 21.3854 | 335.1958 | 213.1112 | 0.99405 | – |
| 2026 May 01 17:56 | 2026 Apr 30 10:34:16 | 10.3659 | 0.00115 | 21.3854 | 335.1958 | 213.1112 | 0.99405 | – |
| 2026 Apr 30 17:56 | 2026 Apr 30 10:34:16 | 10.3659 | 0.00115 | 21.3854 | 335.1958 | 213.1112 | 0.99405 | – |
| 2026 Apr 29 17:57 | 2026 Apr 24 10:54:53 | 10.3756 | 0.00116 | 21.3878 | 335.3885 | 213.1112 | 0.99405 | – |
| 2026 Apr 28 17:56 | 2026 Apr 24 10:54:53 | 10.3756 | 0.00116 | 21.3878 | 335.3885 | 213.1112 | 0.99405 | – |
| 2026 Apr 27 17:58 | 2026 Apr 24 10:54:53 | 10.3756 | 0.00116 | 21.3878 | 335.3885 | 213.1112 | 0.99405 | – |
| 2026 Apr 26 17:58 | 2026 Apr 24 10:54:53 | 10.3756 | 0.00116 | 21.3878 | 335.3885 | 213.1112 | 0.99405 | – |
| 2026 Apr 25 17:58 | 2026 Apr 24 10:54:53 | 10.3756 | 0.00116 | 21.3878 | 335.3885 | 213.1112 | 0.99405 | – |
| 2026 Apr 24 17:59 | 2026 Apr 24 10:54:53 | 10.3756 | 0.00116 | 21.3878 | 335.3885 | 213.1112 | 0.99405 | – |
| 2026 Apr 23 17:57 | 2026 Apr 19 09:29:30 | 10.3836 | 0.00118 | 21.3899 | 335.5133 | 213.1112 | 0.99405 | – |
| 2026 Apr 22 17:57 | 2026 Apr 19 09:29:30 | 10.3836 | 0.00118 | 21.3899 | 335.5133 | 213.1112 | 0.99405 | – |
| 2026 Apr 21 17:57 | 2026 Apr 19 09:29:30 | 10.3836 | 0.00118 | 21.3899 | 335.5133 | 213.1112 | 0.99405 | – |
| 2026 Apr 20 17:57 | 2026 Apr 19 09:29:30 | 10.3836 | 0.00118 | 21.3899 | 335.5133 | 213.1112 | 0.99405 | – |
| 2026 Apr 19 17:58 | 2026 Apr 19 09:29:30 | 10.3836 | 0.00118 | 21.3899 | 335.5133 | 213.1112 | 0.99405 | – |
| 2026 Apr 18 17:56 | 2026 Apr 12 20:09:23 | 10.3942 | 0.00121 | 21.3926 | 335.1253 | 213.1112 | 0.99405 | – |
| 2026 Apr 16 17:57 | 2026 Apr 12 20:09:23 | 10.3942 | 0.00121 | 21.3926 | 335.1253 | 213.1112 | 0.99405 | – |
| 2026 Apr 14 17:57 | 2026 Apr 12 20:09:23 | 10.3942 | 0.00121 | 21.3926 | 335.1253 | 213.1112 | 0.99405 | – |
| 2026 Apr 13 17:57 | 2026 Apr 12 20:09:23 | 10.3942 | 0.00121 | 21.3926 | 335.1253 | 213.1112 | 0.99405 | – |
| 2026 Apr 12 17:57 | 2026 Apr 08 08:24:32 | 10.4015 | 0.00122 | 21.3944 | 334.7492 | 213.1112 | 0.99405 | – |
| 2026 Apr 11 17:57 | 2026 Apr 08 08:24:32 | 10.4015 | 0.00122 | 21.3944 | 334.7492 | 213.1112 | 0.99405 | – |